createdAt,value
2018-12-01T00:02:14.710Z,5.50
2018-12-01T00:04:49.190Z,5.50
2018-12-01T00:07:23.816Z,5.50
2018-12-01T00:09:58.276Z,5.50
2018-12-01T00:12:32.834Z,5.50
2018-12-01T00:15:09.457Z,5.50
2018-12-01T00:17:44.107Z,5.60
2018-12-01T00:20:24.294Z,5.50
2018-12-01T00:22:58.977Z,5.60
2018-12-01T00:25:33.622Z,5.60
2018-12-01T00:28:08.031Z,5.60
2018-12-01T00:30:42.452Z,5.60
2018-12-01T00:33:16.798Z,5.60
2018-12-01T00:35:51.233Z,5.60
2018-12-01T00:38:25.617Z,5.60
2018-12-01T00:41:00.130Z,5.50
2018-12-01T00:43:34.426Z,5.50
2018-12-01T00:46:08.864Z,5.50
2018-12-01T00:48:43.510Z,5.40
2018-12-01T00:51:17.931Z,5.40
2018-12-01T00:53:52.391Z,5.50
2018-12-01T00:56:26.731Z,5.50
2018-12-01T00:59:01.070Z,5.40
2018-12-01T01:01:35.421Z,5.40
2018-12-01T01:04:09.698Z,5.40
2018-12-01T01:06:44.162Z,5.40
2018-12-01T01:09:18.473Z,5.40
2018-12-01T01:11:52.988Z,5.40
2018-12-01T01:14:27.370Z,5.50
2018-12-01T01:17:01.829Z,5.50
2018-12-01T01:19:36.194Z,5.50
2018-12-01T01:22:10.587Z,5.60
2018-12-01T01:24:45.092Z,5.60
2018-12-01T01:27:19.355Z,5.50
2018-12-01T01:29:53.802Z,5.40
2018-12-01T01:32:28.229Z,5.40
2018-12-01T01:35:02.731Z,5.40
2018-12-01T01:37:37.170Z,5.40
2018-12-01T01:40:12.449Z,5.40
2018-12-01T01:42:46.938Z,5.40
2018-12-01T01:45:21.238Z,5.30
2018-12-01T01:47:55.562Z,5.20
2018-12-01T01:50:30.169Z,5.10
2018-12-01T01:53:04.460Z,5.20
2018-12-01T01:55:38.931Z,5.20
2018-12-01T01:58:13.333Z,5.30
2018-12-01T02:00:47.836Z,5.30
2018-12-01T02:03:22.479Z,5.40
2018-12-01T02:05:56.888Z,5.40
2018-12-01T02:08:31.373Z,5.40
2018-12-01T02:11:06.099Z,5.50
2018-12-01T02:13:40.445Z,5.50
2018-12-01T02:16:15.293Z,5.50
2018-12-01T02:18:49.734Z,5.50
2018-12-01T02:21:25.830Z,5.40
2018-12-01T02:24:00.330Z,5.40
2018-12-01T02:26:34.622Z,5.50
2018-12-01T02:29:08.959Z,5.50
2018-12-01T02:31:43.470Z,5.50
2018-12-01T02:34:17.905Z,5.50
2018-12-01T02:36:52.337Z,5.50
2018-12-01T02:39:26.896Z,5.50
2018-12-01T02:42:01.353Z,5.50
2018-12-01T02:45:00.138Z,5.50
2018-12-01T02:47:34.700Z,5.50
2018-12-01T02:50:13.537Z,5.50
2018-12-01T02:52:47.969Z,5.50
2018-12-01T02:55:22.500Z,5.40
2018-12-01T02:57:57.024Z,5.40
2018-12-01T03:00:31.528Z,5.30
2018-12-01T03:03:06.127Z,5.30
2018-12-01T03:05:40.655Z,5.30
2018-12-01T03:08:15.161Z,5.30
2018-12-01T03:10:49.661Z,5.40
2018-12-01T03:13:24.037Z,5.40
2018-12-01T03:15:58.649Z,5.50
2018-12-01T03:18:33.187Z,5.50
2018-12-01T03:21:07.687Z,5.50
2018-12-01T03:23:42.112Z,5.50
2018-12-01T03:26:16.606Z,5.50
2018-12-01T03:28:51.067Z,5.40
2018-12-01T03:31:25.594Z,5.30
2018-12-01T03:33:59.907Z,5.20
2018-12-01T03:36:34.524Z,5.30
2018-12-01T03:39:09.571Z,5.30
2018-12-01T03:41:43.899Z,5.30
2018-12-01T03:44:18.494Z,5.40
2018-12-01T03:46:53.046Z,5.50
2018-12-01T03:49:27.613Z,5.50
2018-12-01T03:52:02.328Z,5.50
2018-12-01T03:54:36.716Z,5.50
2018-12-01T03:57:11.170Z,5.50
2018-12-01T03:59:45.635Z,5.50
2018-12-01T04:02:19.884Z,5.60
2018-12-01T04:04:54.271Z,5.50
2018-12-01T04:07:28.806Z,5.50
2018-12-01T04:10:03.198Z,5.40
2018-12-01T04:12:37.583Z,5.40
2018-12-01T04:15:11.941Z,5.30
2018-12-01T04:17:46.245Z,5.20
2018-12-01T04:20:20.724Z,5.30
2018-12-01T04:22:55.411Z,5.40
2018-12-01T04:25:29.962Z,5.40
2018-12-01T04:28:04.610Z,5.40
2018-12-01T04:30:39.432Z,5.50
2018-12-01T04:33:13.950Z,5.50
2018-12-01T04:35:48.870Z,5.50
2018-12-01T04:38:23.390Z,5.40
2018-12-01T04:40:57.888Z,5.30
2018-12-01T04:43:32.399Z,5.30
2018-12-01T04:46:06.831Z,5.30
2018-12-01T04:48:41.275Z,5.30
2018-12-01T04:51:15.592Z,5.40
2018-12-01T04:53:49.876Z,5.50
2018-12-01T04:56:24.302Z,5.50
2018-12-01T04:58:58.620Z,5.60
2018-12-01T05:01:33.113Z,5.60
2018-12-01T05:04:07.407Z,5.60
2018-12-01T05:06:41.837Z,5.70
2018-12-01T05:09:16.364Z,5.70
2018-12-01T05:11:50.672Z,5.80
2018-12-01T05:14:25.079Z,5.80
2018-12-01T05:16:59.415Z,5.90
2018-12-01T05:19:33.993Z,5.90
2018-12-01T05:22:08.613Z,5.90
2018-12-01T05:24:43.146Z,6.00
2018-12-01T05:27:17.573Z,5.90
2018-12-01T05:29:52.222Z,5.90
2018-12-01T05:32:26.705Z,5.90
2018-12-01T05:35:01.366Z,5.80
2018-12-01T05:37:35.878Z,5.80
2018-12-01T05:40:11.514Z,5.80
2018-12-01T05:42:46.167Z,5.80
2018-12-01T05:45:23.214Z,5.80
2018-12-01T05:47:57.763Z,5.80
2018-12-01T05:50:32.462Z,5.80
2018-12-01T05:53:06.767Z,5.70
2018-12-01T05:55:41.220Z,5.70
2018-12-01T05:58:15.802Z,5.60
2018-12-01T06:00:50.347Z,5.60
2018-12-01T06:03:24.893Z,5.60
2018-12-01T06:05:59.629Z,5.60
2018-12-01T06:08:34.169Z,5.70
2018-12-01T06:11:08.617Z,5.70
2018-12-01T06:13:43.100Z,5.70
2018-12-01T06:16:17.422Z,5.70
2018-12-01T06:18:51.818Z,5.80
2018-12-01T06:21:26.189Z,5.80
2018-12-01T06:24:00.534Z,5.70
2018-12-01T06:26:34.904Z,5.70
2018-12-01T06:29:09.170Z,5.60
2018-12-01T06:31:43.512Z,5.50
2018-12-01T06:34:17.908Z,5.50
2018-12-01T06:36:52.412Z,5.60
2018-12-01T06:39:26.867Z,5.70
2018-12-01T06:42:01.239Z,5.70
2018-12-01T06:44:35.822Z,5.70
2018-12-01T06:47:10.197Z,5.80
2018-12-01T06:49:44.733Z,5.80
2018-12-01T06:52:19.117Z,5.90
2018-12-01T06:54:53.644Z,5.90
2018-12-01T06:57:28.111Z,5.90
2018-12-01T07:00:02.586Z,5.90
2018-12-01T07:02:37.159Z,5.90
2018-12-01T07:05:12.690Z,5.90
2018-12-01T07:07:47.171Z,5.90
2018-12-01T07:10:22.574Z,6.00
2018-12-01T07:12:59.775Z,6.00
2018-12-01T07:15:36.843Z,6.00
2018-12-01T07:18:22.730Z,6.00
2018-12-01T07:20:57.291Z,6.00
2018-12-01T07:23:31.820Z,6.00
2018-12-01T07:26:06.367Z,6.00
2018-12-01T07:28:40.861Z,6.00
2018-12-01T07:31:15.169Z,6.10
2018-12-01T07:33:49.690Z,6.10
2018-12-01T07:36:24.038Z,6.10
2018-12-01T07:38:58.493Z,6.10
2018-12-01T07:41:33.256Z,6.10
2018-12-01T07:44:07.704Z,6.10
2018-12-01T07:46:42.017Z,6.10
2018-12-01T07:49:16.576Z,6.20
2018-12-01T07:51:51.108Z,6.20
2018-12-01T07:54:25.547Z,6.20
2018-12-01T07:56:59.976Z,6.20
2018-12-01T07:59:34.345Z,6.20
2018-12-01T08:02:08.801Z,6.20
2018-12-01T08:04:43.346Z,6.30
2018-12-01T08:07:17.957Z,6.30
2018-12-01T08:09:57.845Z,6.30
2018-12-01T08:12:32.439Z,6.30
2018-12-01T08:15:09.650Z,6.30
2018-12-01T08:17:44.266Z,6.20
2018-12-01T08:20:18.710Z,6.10
2018-12-01T08:22:53.090Z,6.00
2018-12-01T08:25:27.809Z,6.00
2018-12-01T08:28:02.622Z,5.90
2018-12-01T08:30:37.184Z,6.00
2018-12-01T08:33:11.797Z,6.00
2018-12-01T08:35:46.338Z,6.00
2018-12-01T08:38:20.853Z,6.10
2018-12-01T08:40:55.186Z,6.10
2018-12-01T08:43:29.514Z,6.20
2018-12-01T08:46:03.894Z,6.20
2018-12-01T08:48:38.253Z,6.10
2018-12-01T08:51:12.793Z,6.20
2018-12-01T08:53:47.468Z,6.20
2018-12-01T08:56:21.852Z,6.20
2018-12-01T08:58:56.397Z,6.30
2018-12-01T09:01:30.942Z,6.30
2018-12-01T09:04:05.683Z,6.30
2018-12-01T09:06:40.125Z,6.30
2018-12-01T09:09:14.805Z,6.40
2018-12-01T09:11:49.370Z,6.40
2018-12-01T09:14:23.833Z,6.50
2018-12-01T09:16:58.390Z,6.50
2018-12-01T09:19:32.819Z,6.50
2018-12-01T09:22:07.189Z,6.60
2018-12-01T09:24:41.937Z,6.60
2018-12-01T09:27:16.471Z,6.70
2018-12-01T09:29:50.890Z,6.80
2018-12-01T09:32:25.339Z,6.80
2018-12-01T09:34:59.905Z,6.90
2018-12-01T09:37:34.447Z,7.00
2018-12-01T09:40:10.318Z,7.10
2018-12-01T09:42:44.873Z,7.10
2018-12-01T09:45:20.464Z,7.20
2018-12-01T09:47:55.767Z,7.20
2018-12-01T09:50:30.584Z,7.20
2018-12-01T09:53:05.686Z,7.30
2018-12-01T09:55:40.115Z,7.40
2018-12-01T09:58:14.727Z,7.40
2018-12-01T10:00:50.518Z,7.50
2018-12-01T10:03:24.857Z,7.60
2018-12-01T10:05:59.325Z,7.70
2018-12-01T10:08:33.736Z,7.70
2018-12-01T10:11:08.097Z,7.80
2018-12-01T10:13:42.711Z,7.90
2018-12-01T10:16:17.719Z,7.90
2018-12-01T10:18:56.458Z,8.00
2018-12-01T10:21:26.777Z,8.00
2018-12-01T10:24:01.176Z,8.10
2018-12-01T10:26:35.772Z,8.00
2018-12-01T10:29:10.205Z,8.00
2018-12-01T10:31:44.529Z,8.10
2018-12-01T10:34:18.986Z,8.10
2018-12-01T10:36:53.779Z,8.10
2018-12-01T10:39:28.304Z,8.00
2018-12-01T10:42:03.696Z,7.90
2018-12-01T10:44:37.874Z,7.90
2018-12-01T10:47:12.593Z,8.00
2018-12-01T10:49:47.212Z,8.10
2018-12-01T10:52:21.904Z,8.20
2018-12-01T10:54:56.623Z,8.20
2018-12-01T10:57:31.138Z,8.20
2018-12-01T11:00:09.033Z,8.10
2018-12-01T11:02:48.908Z,8.10
2018-12-01T11:05:23.590Z,8.20
2018-12-01T11:07:58.137Z,8.30
2018-12-01T11:10:32.456Z,8.30
2018-12-01T11:13:06.908Z,8.40
2018-12-01T11:15:41.435Z,8.50
2018-12-01T11:18:15.759Z,8.70
2018-12-01T11:20:50.126Z,8.80
2018-12-01T11:23:24.566Z,8.80
2018-12-01T11:25:59.041Z,8.90
2018-12-01T11:28:33.413Z,9.00
2018-12-01T11:31:07.737Z,9.10
2018-12-01T11:33:42.154Z,9.20
2018-12-01T11:36:16.595Z,9.20
2018-12-01T11:38:51.016Z,9.30
2018-12-01T11:41:25.351Z,9.40
2018-12-01T11:43:59.747Z,9.40
2018-12-01T11:46:34.043Z,9.50
2018-12-01T11:49:09.552Z,9.50
2018-12-01T11:51:43.282Z,9.50
2018-12-01T11:54:18.004Z,9.50
2018-12-01T11:56:52.457Z,9.50
2018-12-01T11:59:26.873Z,9.50
2018-12-01T12:02:01.199Z,9.50
2018-12-01T12:04:35.567Z,9.50
2018-12-01T12:07:21.388Z,9.50
2018-12-01T12:09:55.715Z,9.60
2018-12-01T12:12:30.030Z,9.60
2018-12-01T12:15:06.066Z,9.60
2018-12-01T12:17:41.048Z,9.70
2018-12-01T12:20:15.585Z,9.70
2018-12-01T12:22:49.919Z,9.80
2018-12-01T12:25:24.153Z,9.80
2018-12-01T12:27:58.498Z,9.90
2018-12-01T12:30:32.813Z,9.90
2018-12-01T12:33:07.433Z,10.00
2018-12-01T12:35:41.906Z,10.10
2018-12-01T12:38:16.438Z,10.20
2018-12-01T12:40:50.923Z,10.20
2018-12-01T12:43:25.330Z,10.20
2018-12-01T12:45:59.670Z,10.20
2018-12-01T12:48:33.977Z,10.30
2018-12-01T12:51:08.323Z,10.20
2018-12-01T12:53:42.674Z,10.10
2018-12-01T12:56:17.046Z,10.00
2018-12-01T12:58:51.551Z,9.90
2018-12-01T13:01:26.135Z,9.90
2018-12-01T13:04:00.697Z,9.80
2018-12-01T13:06:35.142Z,9.80
2018-12-01T13:09:09.780Z,9.70
2018-12-01T13:11:44.092Z,9.70
2018-12-01T13:14:18.374Z,9.70
2018-12-01T13:16:52.788Z,9.60
2018-12-01T13:19:27.063Z,9.60
2018-12-01T13:22:01.407Z,9.60
2018-12-01T13:24:35.991Z,9.50
2018-12-01T13:27:10.455Z,9.30
2018-12-01T13:29:44.760Z,9.20
2018-12-01T13:32:19.268Z,9.10
2018-12-01T13:34:53.647Z,9.00
2018-12-01T13:37:28.134Z,8.90
2018-12-01T13:40:02.747Z,8.80
2018-12-01T13:42:37.049Z,8.80
2018-12-01T13:45:12.560Z,8.90
2018-12-01T13:47:49.231Z,8.90
2018-12-01T13:50:23.514Z,9.00
2018-12-01T13:53:00.955Z,9.00
2018-12-01T13:55:35.581Z,9.10
2018-12-01T13:58:10.083Z,9.10
2018-12-01T14:00:44.492Z,9.20
2018-12-01T14:03:18.929Z,9.20
2018-12-01T14:05:55.279Z,9.20
2018-12-01T14:08:29.765Z,9.20
2018-12-01T14:11:04.129Z,9.20
2018-12-01T14:13:38.709Z,9.20
2018-12-01T14:16:13.194Z,9.20
2018-12-01T14:18:47.627Z,9.10
2018-12-01T14:21:21.932Z,9.10
2018-12-01T14:23:57.378Z,9.10
2018-12-01T14:26:32.031Z,9.10
2018-12-01T14:29:06.503Z,9.00
2018-12-01T14:31:41.061Z,9.10
2018-12-01T14:34:15.509Z,9.00
2018-12-01T14:36:49.874Z,9.00
2018-12-01T14:39:24.355Z,9.00
2018-12-01T14:41:58.746Z,9.00
2018-12-01T14:44:33.569Z,9.00
2018-12-01T14:47:07.986Z,9.00
2018-12-01T14:49:42.451Z,9.00
2018-12-01T14:52:16.859Z,9.10
2018-12-01T14:54:51.509Z,9.10
2018-12-01T14:57:25.876Z,9.10
2018-12-01T15:00:00.423Z,9.10
2018-12-01T15:02:34.748Z,9.00
2018-12-01T15:05:09.391Z,9.00
2018-12-01T15:07:43.974Z,8.90
2018-12-01T15:10:19.529Z,8.90
2018-12-01T15:12:53.936Z,8.80
2018-12-01T15:15:28.559Z,8.70
2018-12-01T15:18:03.072Z,8.60
2018-12-01T15:20:37.492Z,8.50
2018-12-01T15:23:12.103Z,8.40
2018-12-01T15:25:46.675Z,8.40
2018-12-01T15:28:21.173Z,8.30
2018-12-01T15:30:55.672Z,8.20
2018-12-01T15:33:30.121Z,8.10
2018-12-01T15:36:04.695Z,8.00
2018-12-01T15:38:39.535Z,7.90
2018-12-01T15:41:14.405Z,7.70
2018-12-01T15:43:49.015Z,7.60
2018-12-01T15:46:23.451Z,7.50
2018-12-01T15:48:57.895Z,7.40
2018-12-01T15:51:32.430Z,7.30
2018-12-01T15:54:06.976Z,7.10
2018-12-01T15:56:41.306Z,7.00
2018-12-01T15:59:15.713Z,6.90
2018-12-01T16:01:50.356Z,6.70
2018-12-01T16:04:24.640Z,6.60
2018-12-01T16:06:59.085Z,6.50
2018-12-01T16:09:33.505Z,6.40
2018-12-01T16:12:07.930Z,6.30
2018-12-01T16:14:42.281Z,6.30
2018-12-01T16:17:16.926Z,6.20
2018-12-01T16:19:51.395Z,6.10
2018-12-01T16:22:25.941Z,6.10
2018-12-01T16:25:00.583Z,5.90
2018-12-01T16:27:35.067Z,5.80
2018-12-01T16:30:18.842Z,5.70
2018-12-01T16:32:54.831Z,5.60
2018-12-01T16:35:29.561Z,5.50
2018-12-01T16:38:04.397Z,5.50
2018-12-01T16:40:47.960Z,5.40
2018-12-01T16:43:22.387Z,5.30
2018-12-01T16:45:56.897Z,5.30
2018-12-01T16:48:31.331Z,5.20
2018-12-01T16:51:05.883Z,5.10
2018-12-01T16:53:40.433Z,5.00
2018-12-01T16:56:15.004Z,5.00
2018-12-01T16:58:49.784Z,4.90
2018-12-01T17:01:24.568Z,4.90
2018-12-01T17:03:59.374Z,4.80
2018-12-01T17:06:33.978Z,4.80
2018-12-01T17:09:08.928Z,4.70
2018-12-01T17:11:43.238Z,4.70
2018-12-01T17:14:17.759Z,4.60
2018-12-01T17:16:52.235Z,4.50
2018-12-01T17:19:26.639Z,4.50
2018-12-01T17:22:01.141Z,4.50
2018-12-01T17:24:35.523Z,4.40
2018-12-01T17:27:09.891Z,4.40
2018-12-01T17:29:44.406Z,4.30
2018-12-01T17:32:18.672Z,4.30
2018-12-01T17:34:53.051Z,4.20
2018-12-01T17:37:27.578Z,4.20
2018-12-01T17:40:02.013Z,4.20
2018-12-01T17:42:36.391Z,4.10
2018-12-01T17:45:11.217Z,4.10
2018-12-01T17:47:45.804Z,4.00
2018-12-01T17:50:20.625Z,4.00
2018-12-01T17:52:56.567Z,3.90
2018-12-01T17:55:31.556Z,3.90
2018-12-01T17:58:08.530Z,3.80
2018-12-01T18:00:43.334Z,3.80
2018-12-01T18:03:18.034Z,3.80
2018-12-01T18:05:52.672Z,3.70
2018-12-01T18:08:27.182Z,3.70
2018-12-01T18:11:01.646Z,3.70
2018-12-01T18:13:36.287Z,3.60
2018-12-01T18:16:10.669Z,3.60
2018-12-01T18:18:45.325Z,3.60
2018-12-01T18:21:19.847Z,3.50
2018-12-01T18:23:54.425Z,3.50
2018-12-01T18:26:28.859Z,3.40
2018-12-01T18:29:03.381Z,3.40
2018-12-01T18:31:37.977Z,3.40
2018-12-01T18:34:14.103Z,3.30
2018-12-01T18:36:48.784Z,3.30
2018-12-01T18:39:23.614Z,3.20
2018-12-01T18:41:57.975Z,3.20
2018-12-01T18:44:32.429Z,3.10
2018-12-01T18:47:06.739Z,3.10
2018-12-01T18:49:41.231Z,3.10
2018-12-01T18:52:15.755Z,3.10
2018-12-01T18:54:50.194Z,3.10
2018-12-01T18:57:24.708Z,3.10
2018-12-01T18:59:59.129Z,3.10
2018-12-01T19:02:33.644Z,3.00
2018-12-01T19:05:08.215Z,3.00
2018-12-01T19:07:42.699Z,2.90
2018-12-01T19:10:18.344Z,2.90
2018-12-01T19:12:52.837Z,2.80
2018-12-01T19:15:27.171Z,2.70
2018-12-01T19:18:01.693Z,2.70
2018-12-01T19:20:36.275Z,2.70
2018-12-01T19:23:12.525Z,2.70
2018-12-01T19:25:48.169Z,2.70
2018-12-01T19:28:22.642Z,2.80
2018-12-01T19:30:57.164Z,2.80
2018-12-01T19:33:31.524Z,2.80
2018-12-01T19:36:05.958Z,2.70
2018-12-01T19:38:40.409Z,2.60
2018-12-01T19:41:15.474Z,2.50
2018-12-01T19:43:49.938Z,2.50
2018-12-01T19:46:24.467Z,2.50
2018-12-01T19:48:59.112Z,2.40
2018-12-01T19:51:33.405Z,2.40
2018-12-01T19:54:07.713Z,2.30
2018-12-01T19:56:42.032Z,2.30
2018-12-01T19:59:16.357Z,2.20
2018-12-01T20:01:50.674Z,2.20
2018-12-01T20:04:25.142Z,2.10
2018-12-01T20:06:59.660Z,2.10
2018-12-01T20:09:33.978Z,2.10
2018-12-01T20:12:09.068Z,2.10
2018-12-01T20:14:43.677Z,2.10
2018-12-01T20:17:18.162Z,2.10
2018-12-01T20:19:52.751Z,2.00
2018-12-01T20:22:26.984Z,2.00
2018-12-01T20:25:01.405Z,2.00
2018-12-01T20:27:35.955Z,2.00
2018-12-01T20:30:13.350Z,2.00
2018-12-01T20:32:47.912Z,1.90
2018-12-01T20:35:29.085Z,1.90
2018-12-01T20:38:08.132Z,1.90
2018-12-01T20:40:42.633Z,1.90
2018-12-01T20:43:17.061Z,1.90
2018-12-01T20:45:51.601Z,1.90
2018-12-01T20:48:26.197Z,1.90
2018-12-01T20:51:00.696Z,2.00
2018-12-01T20:53:35.198Z,2.00
2018-12-01T20:56:13.259Z,2.00
2018-12-01T20:58:47.814Z,2.00
2018-12-01T21:01:22.185Z,2.10
2018-12-01T21:03:56.884Z,2.10
2018-12-01T21:06:31.371Z,2.10
2018-12-01T21:09:08.430Z,2.10
2018-12-01T21:11:42.925Z,2.20
2018-12-01T21:14:17.351Z,2.20
2018-12-01T21:16:51.679Z,2.20
2018-12-01T21:19:26.167Z,2.20
2018-12-01T21:22:00.511Z,2.30
2018-12-01T21:24:34.865Z,2.30
2018-12-01T21:27:09.437Z,2.30
2018-12-01T21:29:44.049Z,2.30
2018-12-01T21:32:18.604Z,2.30
2018-12-01T21:34:53.196Z,2.30
2018-12-01T21:37:27.448Z,2.30
2018-12-01T21:40:01.905Z,2.30
2018-12-01T21:42:36.407Z,2.30
2018-12-01T21:45:12.242Z,2.30
2018-12-01T21:47:46.807Z,2.40
2018-12-01T21:50:22.087Z,2.30
2018-12-01T21:52:56.413Z,2.30
2018-12-01T21:55:30.756Z,2.30
2018-12-01T21:58:05.838Z,2.30
2018-12-01T22:00:42.641Z,2.30
2018-12-01T22:03:18.032Z,2.40
2018-12-01T22:05:54.749Z,2.40
2018-12-01T22:08:29.902Z,2.30
2018-12-01T22:11:04.488Z,2.30
2018-12-01T22:13:39.061Z,2.30
2018-12-01T22:16:13.585Z,2.20
2018-12-01T22:18:48.069Z,2.20
2018-12-01T22:21:22.507Z,2.10
2018-12-01T22:23:56.833Z,2.20
2018-12-01T22:26:31.332Z,2.20
2018-12-01T22:29:06.106Z,2.30
2018-12-01T22:31:40.464Z,2.30
2018-12-01T22:34:14.935Z,2.30
2018-12-01T22:36:49.271Z,2.30
2018-12-01T22:39:23.824Z,2.30
2018-12-01T22:41:58.274Z,2.30
2018-12-01T22:44:32.788Z,2.40
2018-12-01T22:47:07.307Z,2.40
2018-12-01T22:49:41.621Z,2.30
2018-12-01T22:52:16.049Z,2.40
2018-12-01T22:54:50.354Z,2.40
2018-12-01T22:57:24.686Z,2.40
2018-12-01T22:59:59.406Z,2.40
2018-12-01T23:02:33.833Z,2.40
2018-12-01T23:05:08.479Z,2.40
2018-12-01T23:07:43.045Z,2.40
2018-12-01T23:10:17.807Z,2.40
2018-12-01T23:12:52.546Z,2.40
2018-12-01T23:15:32.416Z,2.40
2018-12-01T23:18:01.246Z,2.40
2018-12-01T23:20:35.514Z,2.40
2018-12-01T23:23:09.922Z,2.40
2018-12-01T23:25:44.405Z,2.50
2018-12-01T23:28:18.713Z,2.40
2018-12-01T23:30:55.251Z,2.50
2018-12-01T23:33:30.144Z,2.50
2018-12-01T23:36:04.490Z,2.50
2018-12-01T23:38:38.862Z,2.50
2018-12-01T23:41:13.279Z,2.50
2018-12-01T23:43:47.672Z,2.50
2018-12-01T23:46:22.214Z,2.50
2018-12-01T23:48:56.495Z,2.60
2018-12-01T23:51:30.915Z,2.60
2018-12-01T23:54:05.661Z,2.60
2018-12-01T23:56:40.066Z,2.60
2018-12-01T23:59:14.694Z,2.70
